Time;durP1;ratioP1;P1;durP2;ratioP2;P2;SDS_P1;SDS_P2;PMS_P1;PMS_P2;Temp;Humidity;BMP_temperature;BMP_pressure;BME280_temperature;BME280_humidity;BME280_pressure;Samples;Min_cycle;Max_cycle;Signal;HPM_P1;HPM_P2
2021/12/28 00:00:58;;;;;;;11.80;7.25;;;7.50;99.90;;;5.88;100.00;99249.84;2567450;30;137738;-40
2021/12/28 00:03:26;;;;;;;11.38;7.00;;;7.50;99.90;;;5.84;100.00;99254.03;2567519;30;139139;-40
2021/12/28 00:05:55;;;;;;;11.52;6.63;;;7.50;99.90;;;5.80;100.00;99241.16;2566946;30;137011;-40
2021/12/28 00:08:22;;;;;;;12.57;7.80;;;7.50;99.90;;;5.80;100.00;99241.97;2568207;30;137461;-40
2021/12/28 00:10:50;;;;;;;10.95;7.10;;;7.50;99.90;;;5.68;100.00;99241.84;2566223;30;137033;-40
2021/12/28 00:13:18;;;;;;;11.18;6.45;;;7.40;99.90;;;5.62;100.00;99234.59;2567965;30;138375;-40
2021/12/28 00:18:39;;;;;;;13.30;5.93;;;7.30;99.90;;;5.48;100.00;99228.44;2566483;30;138030;-41
2021/12/28 00:21:07;;;;;;;11.15;5.97;;;7.20;99.90;;;5.45;100.00;99226.19;2567722;30;137386;-40
2021/12/28 00:23:40;;;;;;;12.90;6.32;;;7.10;99.90;;;5.42;100.00;99224.72;2567488;30;138303;-40
2021/12/28 00:26:13;;;;;;;12.20;6.25;;;7.10;99.90;;;5.33;100.00;99229.59;2566387;30;138436;-40
2021/12/28 00:28:44;;;;;;;12.88;6.30;;;7.00;99.90;;;5.26;100.00;99223.38;2568706;30;137378;-40
2021/12/28 00:31:15;;;;;;;12.15;6.03;;;7.00;99.90;;;5.32;100.00;99217.13;2568354;30;138347;-40
2021/12/28 00:33:45;;;;;;;11.38;6.07;;;7.00;99.90;;;5.28;100.00;99205.06;2568269;30;137261;-40
2021/12/28 00:36:14;;;;;;;10.20;5.88;;;7.00;99.90;;;5.24;100.00;99203.84;2567847;30;137111;-40
2021/12/28 00:38:42;;;;;;;9.32;5.43;;;6.90;99.90;;;5.18;100.00;99196.59;2567079;30;138387;-40
2021/12/28 00:41:11;;;;;;;15.55;6.35;;;6.90;99.90;;;5.13;100.00;99199.94;2569082;30;137837;-40
2021/12/28 00:43:39;;;;;;;8.75;5.15;;;6.80;99.90;;;5.05;100.00;99200.22;2566821;30;138242;-40
2021/12/28 00:46:08;;;;;;;10.02;5.07;;;6.80;99.90;;;5.02;100.00;99196.03;2567612;30;137332;-41
2021/12/28 00:48:37;;;;;;;9.48;6.00;;;6.80;99.90;;;5.04;100.00;99195.84;2568306;30;137628;-40
2021/12/28 00:51:06;;;;;;;8.35;5.20;;;6.70;99.90;;;4.96;100.00;99179.88;2568026;30;137247;-40
2021/12/28 00:53:34;;;;;;;10.15;5.05;;;6.70;99.90;;;4.93;100.00;99185.72;2566963;30;137868;-40
2021/12/28 00:56:02;;;;;;;;;;;6.70;99.90;;;4.95;100.00;99183.63;2567730;30;137251;-41
2021/12/28 00:58:31;;;;;;;9.70;4.60;;;6.60;99.90;;;4.96;100.00;99186.09;2567372;30;138178;-40
2021/12/28 01:00:59;;;;;;;8.60;5.22;;;6.70;99.90;;;4.97;100.00;99193.16;2567671;30;137448;-40
2021/12/28 01:03:34;;;;;;;9.52;4.80;;;6.70;99.90;;;4.93;100.00;99180.31;2568314;30;137122;-40
2021/12/28 01:06:06;;;;;;;9.63;4.78;;;6.70;99.90;;;4.89;100.00;99174.50;2567880;30;137269;-40
2021/12/28 01:08:34;;;;;;;9.23;4.47;;;6.60;99.90;;;4.85;100.00;99184.91;2565593;30;138450;-40
2021/12/28 01:11:05;;;;;;;7.45;4.38;;;6.60;99.90;;;4.91;100.00;99180.53;2566803;30;139416;-40
2021/12/28 01:13:33;;;;;;;10.60;4.28;;;6.60;99.90;;;4.95;100.00;99183.63;2568442;30;138404;-40
2021/12/28 01:16:00;;;;;;;8.27;4.03;;;6.60;99.90;;;4.99;100.00;99172.16;2568045;30;136973;-41
2021/12/28 01:18:28;;;;;;;8.50;3.97;;;6.70;99.90;;;5.06;100.00;99174.00;2569087;30;138156;-40
2021/12/28 01:20:56;;;;;;;6.82;4.22;;;6.70;99.90;;;5.05;100.00;99173.16;2568668;30;138337;-40
2021/12/28 01:23:25;;;;;;;6.50;3.83;;;6.70;99.90;;;5.05;100.00;99173.16;2568342;30;138158;-40
2021/12/28 01:25:53;;;;;;;10.73;4.03;;;6.70;99.90;;;5.09;100.00;99179.00;2568121;30;137660;-40
2021/12/28 01:28:20;;;;;;;7.80;3.53;;;6.80;99.90;;;5.11;100.00;99168.78;2568375;30;138265;-40
2021/12/28 01:30:48;;;;;;;6.75;3.85;;;6.80;99.90;;;5.20;100.00;99169.34;2568739;30;138244;-40
2021/12/28 01:33:19;;;;;;;6.88;3.50;;;6.80;99.90;;;5.24;100.00;99162.47;2568220;30;137221;-40
2021/12/28 01:35:47;;;;;;;7.07;3.50;;;6.90;99.90;;;5.26;100.00;99163.06;2567756;30;137477;-40
2021/12/28 01:38:17;;;;;;;9.10;4.10;;;6.90;99.90;;;5.32;100.00;99164.91;2568753;30;138578;-40
2021/12/28 01:40:45;;;;;;;10.00;3.47;;;7.00;99.90;;;5.36;100.00;99165.31;2567666;30;137652;-41
2021/12/28 01:43:22;;;;;;;11.88;4.13;;;7.00;99.90;;;5.38;100.00;99166.72;2567842;30;137124;-40
2021/12/28 01:45:57;;;;;;;7.38;3.30;;;7.00;99.90;;;5.38;100.00;99164.00;2567404;30;137557;-40
2021/12/28 01:48:33;;;;;;;9.40;3.45;;;7.00;99.90;;;5.42;100.00;99159.81;2569058;30;138228;-40
2021/12/28 01:51:13;;;;;;;6.88;3.42;;;7.10;99.90;;;5.43;100.00;99155.25;2568095;30;137557;-40
2021/12/28 01:53:41;;;;;;;8.60;3.60;;;7.10;99.90;;;5.47;100.00;99156.47;2568466;30;138524;-40
2021/12/28 01:56:15;;;;;;;6.05;3.10;;;7.10;99.90;;;5.57;100.00;99155.97;2567676;30;136854;-40
2021/12/28 01:58:44;;;;;;;10.63;3.38;;;7.20;99.90;;;5.61;100.00;99149.91;2568875;30;137645;-40
2021/12/28 02:01:13;;;;;;;8.52;3.05;;;7.20;99.90;;;5.63;100.00;99154.28;2567004;30;138498;-40
2021/12/28 02:03:45;;;;;;;5.55;2.80;;;7.30;99.90;;;5.63;100.00;99151.56;2568948;30;138262;-40
2021/12/28 02:06:13;;;;;;;5.75;2.67;;;7.30;99.90;;;5.61;100.00;99147.22;2566851;30;137540;-40
2021/12/28 02:08:41;;;;;;;7.32;3.13;;;7.20;99.90;;;5.82;100.00;99144.31;2566567;30;138371;-40
2021/12/28 02:11:12;;;;;;;8.82;2.63;;;7.40;99.90;;;5.85;100.00;99141.16;2568863;30;137659;-40
2021/12/28 02:13:40;;;;;;;9.18;2.83;;;7.40;99.90;;;5.86;100.00;99140.94;2567732;30;136875;-40
2021/12/28 02:16:11;;;;;;;11.32;2.65;;;7.50;99.90;;;5.86;100.00;99140.09;2567933;30;136957;-40
2021/12/28 02:18:39;;;;;;;7.00;2.63;;;7.50;99.90;;;5.84;100.00;99137.66;2568151;30;138863;-41
2021/12/28 02:21:09;;;;;;;11.40;3.10;;;7.50;99.90;;;5.89;100.00;99131.53;2565852;30;138605;-40
2021/12/28 02:23:37;;;;;;;10.98;2.97;;;7.50;99.90;;;5.94;100.00;99133.59;2567511;30;138169;-40
2021/12/28 02:26:04;;;;;;;12.48;2.83;;;7.50;99.90;;;5.97;100.00;99138.56;2568578;30;137610;-40
2021/12/28 02:28:33;;;;;;;7.28;2.70;;;7.60;99.90;;;5.99;100.00;99133.75;2567715;30;138625;-40
2021/12/28 02:31:03;;;;;;;12.45;3.17;;;7.60;99.90;;;5.91;100.00;99132.16;2566413;30;137468;-40
2021/12/28 02:33:33;;;;;;;10.60;2.83;;;7.60;99.90;;;5.94;100.00;99130.88;2565760;30;140083;-40
2021/12/28 02:36:03;;;;;;;9.98;2.85;;;7.50;99.90;;;5.96;100.00;99126.06;2567836;30;137578;-40
2021/12/28 02:38:33;;;;;;;11.48;2.88;;;7.60;99.90;;;5.94;100.00;99117.34;2568085;30;138225;-40
2021/12/28 02:41:02;;;;;;;11.95;2.47;;;7.60;99.90;;;5.97;100.00;99125.84;2568459;30;136681;-40
2021/12/28 02:43:30;;;;;;;9.25;2.30;;;7.60;99.90;;;5.97;100.00;99122.31;2566190;30;137381;-40
2021/12/28 02:46:02;;;;;;;12.35;2.80;;;7.60;99.90;;;5.95;100.00;99122.53;2567413;30;137563;-40
2021/12/28 02:48:31;;;;;;;12.30;2.42;;;7.60;99.90;;;5.94;100.00;99110.03;2566423;30;138118;-40
2021/12/28 02:51:03;;;;;;;12.02;2.63;;;7.60;99.90;;;5.99;100.00;99122.91;2568701;30;137534;-40
2021/12/28 02:53:31;;;;;;;5.90;1.92;;;7.60;99.90;;;5.99;100.00;99114.78;2568147;30;138303;-40
2021/12/28 02:55:59;;;;;;;7.55;2.10;;;7.60;99.90;;;6.06;100.00;99112.84;2567315;30;137466;-40
2021/12/28 02:58:33;;;;;;;6.63;1.95;;;7.60;99.90;;;6.01;100.00;99110.84;2568353;30;138328;-40
2021/12/28 03:01:19;;;;;;;8.85;2.25;;;7.60;99.90;;;6.02;100.00;99106.25;2568126;30;138183;-40
2021/12/28 03:03:52;;;;;;;10.48;3.10;;;7.60;99.90;;;6.00;100.00;99106.47;2566985;30;137131;-40
2021/12/28 03:06:23;;;;;;;10.10;2.35;;;7.60;99.90;;;5.96;100.00;99099.81;2567641;30;137430;-40
2021/12/28 03:08:55;;;;;;;9.25;2.30;;;7.60;99.90;;;5.99;100.00;99102.09;2567959;30;138159;-40
2021/12/28 03:11:26;;;;;;;13.60;2.55;;;7.60;99.90;;;6.08;100.00;99101.81;2567747;30;137284;-40
2021/12/28 03:14:02;;;;;;;9.82;2.50;;;7.70;99.90;;;6.12;100.00;99094.91;2567436;30;138459;-40
2021/12/28 03:16:31;;;;;;;10.30;2.45;;;7.70;99.90;;;6.06;100.00;99071.44;2567653;30;136882;-40
2021/12/28 03:19:00;;;;;;;10.18;2.25;;;7.70;99.90;;;6.22;100.00;99086.25;2567022;30;137133;-41
2021/12/28 03:21:28;;;;;;;14.65;2.25;;;7.80;99.90;;;6.28;100.00;99085.34;2570984;30;138373;-38
2021/12/28 03:23:57;;;;;;;9.70;2.28;;;7.90;99.90;;;6.31;100.00;99088.44;2566811;30;137827;-38
2021/12/28 03:26:25;;;;;;;13.77;2.35;;;7.90;99.90;;;6.33;100.00;99075.47;2567888;30;136867;-38
2021/12/28 03:28:53;;;;;;;10.57;2.90;;;7.90;99.90;;;6.42;100.00;99080.59;2567639;30;139114;-38
2021/12/28 03:31:24;;;;;;;16.20;2.95;;;8.00;99.90;;;6.48;100.00;99077.78;2568857;30;137778;-38
2021/12/28 03:33:55;;;;;;;15.18;3.38;;;8.00;99.90;;;6.55;100.00;99071.44;2568329;30;138269;-38
2021/12/28 03:36:28;;;;;;;14.38;2.58;;;8.10;99.90;;;6.65;100.00;99081.75;2566652;30;137147;-38
2021/12/28 03:38:58;;;;;;;13.93;2.72;;;8.20;99.90;;;6.67;100.00;99071.50;2567902;30;138189;-38
2021/12/28 03:41:29;;;;;;;15.13;2.88;;;8.20;99.90;;;6.71;100.00;99076.25;2568470;30;137589;-38
2021/12/28 03:43:57;;;;;;;12.57;2.97;;;8.30;99.90;;;6.70;100.00;99071.03;2568252;30;138248;-38
2021/12/28 03:46:27;;;;;;;9.52;2.08;;;8.30;99.90;;;6.72;100.00;99066.22;2567790;30;138025;-38
2021/12/28 03:48:56;;;;;;;13.02;2.53;;;8.30;99.90;;;6.72;100.00;99060.78;2569539;30;137262;-38
2021/12/28 03:51:24;;;;;;;12.70;1.98;;;8.30;99.90;;;6.71;100.00;99062.69;2566489;30;138671;-38
2021/12/28 03:53:52;;;;;;;16.73;2.95;;;8.30;99.90;;;6.74;100.00;99059.53;2567250;30;136756;-38
2021/12/28 03:56:21;;;;;;;8.48;1.83;;;8.30;99.90;;;6.81;100.00;99056.72;2567790;30;137515;-38
2021/12/28 03:58:49;;;;;;;10.32;2.65;;;8.40;99.90;;;6.74;100.00;99055.97;2567332;30;138675;-38
2021/12/28 04:01:24;;;;;;;;;;;8.40;99.90;;;6.81;100.00;99053.16;2567331;30;137471;-38
2021/12/28 04:03:52;;;;;;;14.40;2.50;;;8.40;99.90;;;6.79;100.00;99055.28;2568434;30;137257;-38
2021/12/28 04:06:21;;;;;;;12.88;2.25;;;8.40;99.90;;;6.75;100.00;99049.50;2565103;30;136759;-37
2021/12/28 04:08:49;;;;;;;14.65;2.63;;;8.30;99.90;;;6.75;100.00;99044.06;2568563;30;137920;-38
2021/12/28 04:13:49;;;;;;;11.00;2.30;;;8.30;99.90;;;6.72;100.00;99044.53;2568084;30;138313;-38
2021/12/28 04:16:18;;;;;;;15.90;2.80;;;8.30;99.90;;;6.74;100.00;99045.13;2566578;30;137210;-38
2021/12/28 04:18:47;;;;;;;14.07;2.20;;;8.30;99.90;;;6.78;100.00;99043.63;2567225;30;137414;-38
2021/12/28 04:21:14;;;;;;;12.02;2.10;;;8.40;99.90;;;6.83;100.00;99032.06;2565875;30;137400;-38
2021/12/28 04:23:43;;;;;;;13.77;2.63;;;8.40;99.90;;;6.82;100.00;99033.97;2568115;30;138177;-38
2021/12/28 04:26:11;;;;;;;11.07;2.35;;;8.40;99.90;;;6.88;100.00;99032.19;2567031;30;137708;-38
2021/12/28 04:28:39;;;;;;;15.20;2.53;;;8.40;99.90;;;6.87;100.00;99019.69;2566743;30;138391;-38
2021/12/28 04:31:07;;;;;;;17.38;2.60;;;8.40;99.90;;;6.81;100.00;99020.63;2567770;30;137480;-38
2021/12/28 04:33:37;;;;;;;11.90;2.17;;;8.40;99.90;;;6.87;100.00;99025.13;2566917;30;138210;-38
2021/12/28 04:36:15;;;;;;;14.88;2.63;;;8.40;99.90;;;6.81;100.00;99021.47;2567251;30;137320;-38
2021/12/28 04:38:45;;;;;;;13.30;2.40;;;8.40;99.90;;;6.76;100.00;99016.75;2566898;30;138408;-38
2021/12/28 04:41:13;;;;;;;11.10;2.35;;;8.40;99.90;;;6.72;100.00;99017.44;2568164;30;137451;-38
2021/12/28 04:43:41;;;;;;;11.57;2.40;;;8.40;99.90;;;6.72;100.00;99012.84;2568278;30;137213;-38
2021/12/28 04:46:09;;;;;;;12.93;2.60;;;8.30;99.90;;;6.76;100.00;99013.19;2565608;30;138064;-38
2021/12/28 04:48:36;;;;;;;11.80;2.35;;;8.40;99.90;;;6.75;100.00;99011.53;2567784;30;137235;-38
2021/12/28 04:51:05;;;;;;;9.90;2.60;;;8.40;99.90;;;6.79;100.00;99007.34;2567946;30;137503;-38
2021/12/28 04:53:33;;;;;;;14.80;2.25;;;8.40;99.90;;;6.76;100.00;99014.03;2568183;30;138240;-38
2021/12/28 04:56:01;;;;;;;14.20;2.47;;;8.40;99.90;;;6.83;100.00;99015.81;2567919;30;137429;-38
2021/12/28 04:58:29;;;;;;;14.00;2.63;;;8.40;99.90;;;6.84;100.00;99007.47;2566369;30;139062;-38
2021/12/28 05:00:56;;;;;;;15.45;2.85;;;8.40;99.90;;;6.90;100.00;99016.56;2566154;30;137138;-38
2021/12/28 05:03:24;;;;;;;18.17;2.63;;;8.50;99.90;;;6.88;100.00;99013.22;2568227;30;138234;-38
2021/12/28 05:05:52;;;;;;;13.75;2.40;;;8.50;99.90;;;6.92;100.00;99011.72;2566708;30;138408;-38
2021/12/28 05:08:22;;;;;;;12.48;2.03;;;8.50;99.90;;;6.95;100.00;99005.84;2568023;30;138433;-38
2021/12/28 05:10:52;;;;;;;14.80;2.72;;;8.50;99.90;;;6.92;100.00;99006.31;2567632;30;136869;-38
2021/12/28 05:13:21;;;;;;;8.82;2.10;;;8.50;99.90;;;6.98;100.00;98999.94;2567162;30;138682;-38
2021/12/28 05:15:50;;;;;;;15.77;2.40;;;8.50;99.90;;;6.96;100.00;98996.63;2567198;30;137274;-38
2021/12/28 05:18:18;;;;;;;11.07;2.20;;;8.50;99.90;;;6.99;100.00;98989.91;2566901;30;137398;-38
2021/12/28 05:20:46;;;;;;;17.45;2.60;;;8.60;99.90;;;7.01;100.00;98990.50;2564800;30;137325;-38
2021/12/28 05:23:14;;;;;;;11.43;2.13;;;8.60;99.90;;;6.96;100.00;98988.50;2568998;30;136970;-38
2021/12/28 05:25:41;;;;;;;13.85;2.65;;;8.60;99.90;;;6.96;100.00;98990.38;2566309;30;137470;-38
2021/12/28 05:28:09;;;;;;;16.15;2.63;;;8.60;99.90;;;6.94;100.00;98993.34;2568667;30;138315;-38
2021/12/28 05:30:37;;;;;;;14.95;2.58;;;8.50;99.90;;;6.93;100.00;99001.69;2568147;30;137071;-38
2021/12/28 05:33:04;;;;;;;12.55;2.63;;;8.50;99.90;;;6.94;100.00;98998.75;2568229;30;138191;-38
2021/12/28 05:35:32;;;;;;;11.35;2.22;;;8.50;99.90;;;6.96;100.00;98999.34;2568143;30;137238;-38
2021/12/28 05:38:00;;;;;;;8.77;2.22;;;8.50;99.90;;;6.94;100.00;98982.50;2567578;30;138433;-38
2021/12/28 05:40:27;;;;;;;14.73;2.60;;;8.50;99.90;;;7.09;100.00;98976.59;2568018;30;138158;-38
2021/12/28 05:42:55;;;;;;;11.50;2.70;;;8.60;99.90;;;7.03;100.00;98981.06;2568047;30;138458;-38
2021/12/28 05:45:22;;;;;;;13.00;2.88;;;8.60;99.90;;;6.99;100.00;98979.91;2567937;30;136943;-38
2021/12/28 05:47:50;;;;;;;14.27;2.70;;;8.60;99.90;;;7.02;100.00;98975.88;2567165;30;138267;-38
2021/12/28 05:50:17;;;;;;;12.85;2.70;;;8.60;99.90;;;7.02;100.00;98978.59;2568686;30;136695;-38
2021/12/28 05:52:45;;;;;;;12.38;2.65;;;8.60;99.90;;;7.05;100.00;98973.53;2568323;30;137380;-38
2021/12/28 05:55:13;;;;;;;10.35;2.38;;;8.60;99.90;;;7.08;100.00;98974.97;2565891;30;137415;-38
2021/12/28 05:57:41;;;;;;;15.85;2.70;;;8.60;99.90;;;7.07;100.00;98967.88;2567808;30;138469;-38
2021/12/28 06:00:11;;;;;;;7.57;1.95;;;8.60;99.90;;;7.09;100.00;98984.75;2569199;30;136696;-38
2021/12/28 06:02:38;;;;;;;15.82;3.25;;;8.70;99.90;;;7.08;100.00;98974.13;2565855;30;137256;-38
2021/12/28 06:05:06;;;;;;;;;;;8.60;99.90;;;7.11;100.00;98979.06;2565668;30;136907;-38
2021/12/28 06:07:34;;;;;;;15.35;3.17;;;8.70;99.90;;;7.14;100.00;98971.31;2567803;30;137333;-38
2021/12/28 06:10:04;;;;;;;10.80;2.60;;;8.70;99.90;;;7.18;100.00;98969.75;2568297;30;137490;-38
2021/12/28 06:12:31;;;;;;;13.00;3.00;;;8.70;99.90;;;7.14;100.00;98970.47;2568347;30;137273;-38
2021/12/28 06:14:59;;;;;;;15.10;3.47;;;8.70;99.90;;;7.11;100.00;98969.06;2567154;30;136878;-38
2021/12/28 06:17:26;;;;;;;11.65;3.65;;;8.70;99.90;;;7.08;100.00;98974.13;2568222;30;138407;-38
2021/12/28 06:19:54;;;;;;;13.70;3.50;;;8.70;99.90;;;7.07;100.00;98970.59;2566165;30;137346;-38
2021/12/28 06:22:21;;;;;;;12.40;3.58;;;8.60;99.90;;;7.05;100.00;98970.81;2568421;30;138310;-38
2021/12/28 06:24:49;;;;;;;12.05;3.47;;;8.60;99.90;;;7.03;100.00;98970.22;2567632;30;137580;-38
2021/12/28 06:27:18;;;;;;;14.05;3.70;;;8.60;99.90;;;7.01;100.00;98964.22;2569296;30;136581;-38
2021/12/28 06:29:46;;;;;;;11.68;3.85;;;8.60;99.90;;;6.99;100.00;98957.38;2568577;30;137546;-38
2021/12/28 06:32:13;;;;;;;11.98;3.60;;;8.60;99.90;;;6.95;100.00;98958.91;2568806;30;138259;-38
2021/12/28 06:34:41;;;;;;;14.48;4.03;;;8.60;99.90;;;6.94;100.00;98958.09;2566312;30;137524;-38
2021/12/28 06:37:09;;;;;;;;;;;8.60;99.90;;;6.90;100.00;98955.00;2566964;30;137082;-38
2021/12/28 06:39:36;;;;;;;8.85;3.30;;;8.50;99.90;;;6.84;100.00;98949.69;2568142;30;137890;-38
2021/12/28 06:42:05;;;;;;;13.15;4.10;;;8.50;99.90;;;6.81;100.00;98952.88;2566212;30;139539;-38
2021/12/28 06:44:33;;;;;;;13.40;4.18;;;8.40;99.90;;;6.86;100.00;98953.00;2567656;30;138173;-38
2021/12/28 06:47:00;;;;;;;16.25;4.25;;;8.50;99.90;;;6.88;100.00;98959.00;2567472;30;139315;-38
2021/12/28 06:49:28;;;;;;;15.13;4.13;;;8.40;99.90;;;6.87;100.00;98954.63;2568285;30;136712;-38
2021/12/28 06:51:55;;;;;;;14.32;3.92;;;8.50;99.90;;;6.86;100.00;98958.41;2568127;30;138107;-38
2021/12/28 06:54:23;;;;;;;12.35;4.05;;;8.40;99.90;;;6.92;100.00;98960.22;2567540;30;137437;-37
2021/12/28 06:56:50;;;;;;;13.77;3.58;;;8.40;99.90;;;6.94;100.00;98968.09;2569115;30;137367;-38
2021/12/28 06:59:18;;;;;;;10.38;3.85;;;8.50;99.90;;;7.02;100.00;98962.31;2567507;30;138282;-38
2021/12/28 07:01:46;;;;;;;11.38;3.75;;;8.60;99.90;;;7.00;100.00;98967.16;2567334;30;137244;-38
2021/12/28 07:04:14;;;;;;;12.25;3.78;;;8.60;99.90;;;7.02;100.00;98965.03;2568094;30;137353;-37
2021/12/28 07:06:41;;;;;;;13.25;3.67;;;8.60;99.90;;;7.00;100.00;98965.28;2566530;30;138644;-38
2021/12/28 07:09:08;;;;;;;13.98;4.10;;;8.60;99.90;;;6.97;100.00;98968.47;2568000;30;136980;-38
2021/12/28 07:11:36;;;;;;;14.70;4.10;;;8.60;99.90;;;6.96;100.00;98969.53;2568116;30;138114;-38
2021/12/28 07:14:03;;;;;;;12.40;3.78;;;8.50;99.90;;;6.98;100.00;98970.13;2566399;30;138400;-38
2021/12/28 07:16:31;;;;;;;8.77;3.50;;;8.60;99.90;;;6.95;100.00;98967.88;2567092;30;137241;-38
2021/12/28 07:18:59;;;;;;;11.63;3.80;;;8.50;99.90;;;6.95;100.00;98967.88;2567815;30;136838;-38
2021/12/28 07:21:26;;;;;;;10.18;3.47;;;8.50;99.90;;;6.96;100.00;98966.81;2568333;30;137129;-38
2021/12/28 07:23:53;;;;;;;10.93;3.60;;;8.50;99.90;;;7.00;100.00;98962.56;2568185;30;137632;-37
2021/12/28 07:26:21;;;;;;;14.13;3.83;;;8.60;99.90;;;7.05;100.00;98964.59;2564857;30;138984;-38
2021/12/28 07:28:48;;;;;;;15.60;3.97;;;8.60;99.90;;;7.10;100.00;98958.44;2567797;30;137791;-38
2021/12/28 07:31:16;;;;;;;10.20;3.33;;;8.60;99.90;;;7.10;100.00;98966.56;2567846;30;137362;-38
2021/12/28 07:33:43;;;;;;;14.30;3.97;;;8.70;99.90;;;7.13;100.00;98964.22;2566787;30;137256;-38
2021/12/28 07:36:11;;;;;;;7.97;3.53;;;8.70;99.90;;;7.16;100.00;98957.50;2567699;30;139218;-38
2021/12/28 07:38:39;;;;;;;10.52;3.58;;;8.70;99.90;;;7.14;100.00;98946.91;2565163;30;138629;-38
2021/12/28 07:41:06;;;;;;;10.27;3.63;;;8.70;99.90;;;7.16;100.00;98927.66;2566931;30;139115;-38
2021/12/28 07:43:34;;;;;;;8.85;3.13;;;8.80;99.90;;;7.10;100.00;98928.59;2567422;30;138345;-38
2021/12/28 07:46:02;;;;;;;10.13;3.30;;;8.70;99.90;;;7.08;100.00;98917.16;2567842;30;138259;-38
2021/12/28 07:48:30;;;;;;;11.85;2.67;;;8.70;99.90;;;6.97;100.00;98918.81;2566559;30;137925;-38
2021/12/28 07:50:58;;;;;;;9.15;3.15;;;8.60;99.90;;;6.85;100.00;98918.81;2566895;30;138472;-37
2021/12/28 07:53:25;;;;;;;;;;;8.50;99.90;;;6.83;100.00;98920.94;2569115;30;137948;-38
2021/12/28 07:55:54;;;;;;;7.00;2.47;;;8.50;99.90;;;6.73;100.00;98926.94;2568486;30;138104;-38
2021/12/28 07:58:21;;;;;;;;;;;8.40;99.90;;;6.62;100.00;98944.81;2569060;30;138214;-38
2021/12/28 08:00:48;;;;;;;8.43;3.08;;;8.30;99.90;;;6.67;100.00;98954.97;2567217;30;138231;-38
2021/12/28 08:03:16;;;;;;;9.50;2.97;;;8.30;99.90;;;6.74;100.00;98953.81;2568275;30;137379;-38
2021/12/28 08:05:44;;;;;;;10.73;3.38;;;8.30;99.90;;;6.78;100.00;98956.91;2567207;30;138295;-38
2021/12/28 08:08:11;;;;;;;;;;;8.40;99.90;;;6.81;100.00;98955.59;2567848;30;138175;-38
2021/12/28 08:10:40;;;;;;;12.75;2.90;;;8.40;99.90;;;6.91;100.00;98966.69;2564914;30;138085;-38
2021/12/28 08:13:08;;;;;;;8.00;2.95;;;8.50;99.90;;;6.91;100.00;98961.28;2567174;30;138340;-38
2021/12/28 08:15:35;;;;;;;10.77;3.00;;;8.50;99.90;;;6.87;100.00;98966.31;2566473;30;138429;-38
2021/12/28 08:18:04;;;;;;;12.70;3.13;;;8.50;99.90;;;6.95;100.00;98970.59;2567951;30;136674;-38
2021/12/28 08:20:32;;;;;;;8.80;2.80;;;8.50;99.90;;;6.96;100.00;98974.94;2567649;30;139090;-38
2021/12/28 08:23:00;;;;;;;9.30;3.22;;;8.50;99.90;;;6.99;100.00;98970.94;2564984;30;137475;-38
2021/12/28 08:25:28;;;;;;;7.00;3.10;;;8.50;99.90;;;7.02;100.00;98976.72;2567356;30;138601;-38
2021/12/28 08:27:57;;;;;;;9.93;3.20;;;8.60;99.90;;;7.05;100.00;98970.81;2567768;30;137560;-38
2021/12/28 08:30:24;;;;;;;11.27;3.28;;;8.60;99.90;;;7.11;100.00;98977.19;2567541;30;139238;-38
2021/12/28 08:32:52;;;;;;;6.18;2.83;;;8.70;99.90;;;7.21;100.00;98973.91;2567517;30;136768;-38
2021/12/28 08:35:20;;;;;;;11.85;3.28;;;8.70;99.90;;;7.14;100.00;98971.31;2565631;30;138548;-38
2021/12/28 08:37:48;;;;;;;11.93;3.08;;;8.70;99.90;;;7.16;100.00;98973.75;2564939;30;138603;-38
2021/12/28 08:40:17;;;;;;;;;;;8.70;99.90;;;7.19;100.00;98970.59;2566071;30;139459;-38
2021/12/28 08:42:44;;;;;;;8.25;3.30;;;8.80;99.90;;;7.29;100.00;98967.28;2567945;30;136993;-38
2021/12/28 08:45:13;;;;;;;9.13;2.92;;;8.80;99.90;;;7.30;100.00;98964.34;2567006;30;138323;-38
2021/12/28 08:47:41;;;;;;;7.28;3.35;;;8.80;99.90;;;7.33;100.00;98961.16;2567361;30;137622;-38
2021/12/28 08:50:10;;;;;;;;;;;8.90;99.90;;;7.33;100.00;98953.00;2569108;30;138436;-38
2021/12/28 08:52:38;;;;;;;10.70;3.40;;;8.90;99.90;;;7.33;100.00;98963.06;2567432;30;137266;-38
2021/12/28 08:55:11;;;;;;;7.90;2.88;;;8.90;99.90;;;7.34;100.00;98962.81;2567693;30;138342;-38
2021/12/28 08:57:39;;;;;;;11.32;3.55;;;8.90;99.90;;;7.40;100.00;98962.91;2567493;30;136937;-38
2021/12/28 09:00:16;;;;;;;9.95;3.00;;;8.90;99.90;;;7.43;100.00;98963.28;2566011;30;137930;-38
2021/12/28 09:02:44;;;;;;;8.98;4.00;;;9.00;99.90;;;7.53;100.00;98949.09;2567393;30;137615;-38
2021/12/28 09:05:11;;;;;;;8.98;3.50;;;9.00;99.90;;;7.52;100.00;98954.75;2568150;30;139072;-38
2021/12/28 09:07:39;;;;;;;7.22;3.03;;;9.00;99.90;;;7.54;100.00;98956.19;2566434;30;137425;-38
2021/12/28 09:10:07;;;;;;;7.35;3.00;;;9.10;99.90;;;7.54;100.00;98942.63;2568295;30;137187;-38
2021/12/28 09:12:35;;;;;;;9.25;3.65;;;9.00;99.90;;;7.62;100.00;98942.22;2566319;30;137794;-38
2021/12/28 09:15:06;;;;;;;11.38;3.40;;;9.10;99.90;;;7.68;100.00;98945.88;2568323;30;137486;-38
2021/12/28 09:17:34;;;;;;;7.03;3.08;;;9.20;99.90;;;7.65;100.00;98942.81;2567347;30;137095;-38
2021/12/28 09:20:10;;;;;;;7.50;3.60;;;9.20;99.90;;;7.69;100.00;98941.28;2569479;30;137887;-38
2021/12/28 09:22:51;;;;;;;6.53;3.37;;;9.20;99.90;;;7.72;100.00;98938.09;2567942;30;136889;-38
2021/12/28 09:25:19;;;;;;;7.30;3.20;;;9.20;99.90;;;7.72;100.00;98948.97;2566894;30;138203;-38
2021/12/28 09:27:47;;;;;;;6.95;3.00;;;9.30;99.90;;;7.74;100.00;98941.41;2568279;30;138312;-38
2021/12/28 09:30:15;;;;;;;;;;;9.20;99.90;;;7.77;100.00;98946.34;2567743;30;139091;-38
2021/12/28 09:32:43;;;;;;;8.88;3.33;;;9.30;99.90;;;7.74;100.00;98936.78;2568991;30;137078;-38
2021/12/28 09:35:12;;;;;;;;;;;9.30;99.90;;;7.82;100.00;98940.19;2568766;30;137856;-38
2021/12/28 09:37:40;;;;;;;9.70;3.20;;;9.30;99.90;;;7.84;100.00;98944.31;2568617;30;136988;-38
2021/12/28 09:40:11;;;;;;;5.20;2.70;;;9.30;99.90;;;7.86;100.00;98944.09;2566503;30;139210;-38
2021/12/28 09:42:41;;;;;;;6.60;2.75;;;9.30;99.90;;;7.92;100.00;98943.13;2567469;30;137374;-38
2021/12/28 09:45:13;;;;;;;6.93;2.55;;;9.40;99.90;;;7.92;100.00;98941.22;2568529;30;138149;-38
2021/12/28 09:47:43;;;;;;;8.00;2.33;;;9.40;99.90;;;7.91;100.00;98936.03;2567631;30;137779;-38
2021/12/28 09:50:15;;;;;;;6.80;2.50;;;9.40;99.90;;;7.91;100.00;98933.31;2567956;30;139168;-38
2021/12/28 09:52:47;;;;;;;7.25;2.90;;;9.40;99.90;;;7.94;100.00;98926.56;2565704;30;137492;-38
2021/12/28 09:55:19;;;;;;;10.30;2.70;;;9.50;99.90;;;7.95;100.00;98926.34;2568867;30;139112;-38
2021/12/28 09:57:49;;;;;;;8.40;2.53;;;9.40;99.90;;;7.90;100.00;98934.38;2567966;30;137574;-38
2021/12/28 10:00:21;;;;;;;7.85;2.60;;;9.50;99.90;;;7.89;100.00;98922.69;2567513;30;138257;-38
2021/12/28 10:03:08;;;;;;;6.78;2.65;;;9.40;99.90;;;7.93;100.00;98925.75;2566894;30;137021;-38
2021/12/28 10:05:36;;;;;;;5.88;2.28;;;9.50;99.90;;;7.97;100.00;98920.69;2566992;30;137899;-38
2021/12/28 10:08:06;;;;;;;6.32;2.33;;;9.50;99.90;;;7.94;100.00;98929.28;2567394;30;137669;-38
2021/12/28 10:10:39;;;;;;;5.68;2.40;;;9.50;99.90;;;7.92;100.00;98934.97;2567560;30;137281;-38
2021/12/28 10:13:19;;;;;;;4.70;2.03;;;9.50;99.90;;;7.94;100.00;98916.53;2568258;30;137401;-38
2021/12/28 10:15:50;;;;;;;5.75;2.10;;;9.50;99.90;;;7.97;100.00;98917.97;2567354;30;138235;-38
2021/12/28 10:18:18;;;;;;;4.13;2.08;;;9.50;99.90;;;7.92;100.00;98902.38;2566088;30;137368;-38
2021/12/28 10:21:01;;;;;;;5.60;2.45;;;9.50;99.90;;;7.92;100.00;98911.34;2568170;30;138793;-38
2021/12/28 10:23:33;;;;;;;5.20;2.20;;;9.40;99.90;;;7.94;100.00;98902.13;2567908;30;136892;-38
2021/12/28 10:26:06;;;;;;;4.00;1.75;;;9.50;99.90;;;7.92;100.00;98905.09;2566958;30;138436;-38
2021/12/28 10:28:37;;;;;;;6.78;2.10;;;9.50;99.90;;;7.99;100.00;98905.78;2567159;30;137593;-38
2021/12/28 10:31:22;;;;;;;5.28;2.28;;;9.50;99.90;;;7.97;100.00;98897.03;2567192;30;138271;-38